Time;durP1;ratioP1;P1;durP2;ratioP2;P2;SDS_P1;SDS_P2;PMS_P1;PMS_P2;Temp;Humidity;BMP_temperature;BMP_pressure;BME280_temperature;BME280_humidity;BME280_pressure;Samples;Min_cycle;Max_cycle;Signal;HPM_P1;HPM_P2
2023/05/24 00:01:41;;;;;;;2.55;2.35;;;13.90;97.20;;;;;;5033570;28;20033;-75
2023/05/24 00:04:07;;;;;;;2.70;2.45;;;13.90;97.20;;;;;;5032927;28;20501;-74
2023/05/24 00:06:36;;;;;;;2.28;2.15;;;13.80;97.10;;;;;;5033006;28;20036;-74
2023/05/24 00:09:03;;;;;;;2.20;2.00;;;13.80;97.20;;;;;;5033384;28;20039;-74
2023/05/24 00:11:29;;;;;;;2.67;2.00;;;13.70;97.30;;;;;;5033064;28;20029;-76
2023/05/24 00:13:54;;;;;;;2.58;2.35;;;13.70;97.40;;;;;;5015325;28;20083;-76
2023/05/24 00:16:20;;;;;;;2.53;2.22;;;13.70;97.40;;;;;;5032895;28;20064;-75
2023/05/24 00:18:46;;;;;;;3.45;2.55;;;13.70;97.80;;;;;;5043087;28;20037;-73
2023/05/24 00:21:13;;;;;;;2.30;2.10;;;13.70;97.50;;;;;;5052339;28;20017;-75
2023/05/24 00:23:39;;;;;;;2.35;2.15;;;13.70;97.70;;;;;;5053269;28;20097;-75
2023/05/24 00:26:04;;;;;;;2.10;1.90;;;13.70;97.50;;;;;;5052166;28;20484;-75
2023/05/24 00:28:30;;;;;;;2.47;2.28;;;13.80;97.60;;;;;;5046871;28;20200;-75
2023/05/24 00:30:57;;;;;;;2.40;2.20;;;13.80;97.60;;;;;;5015274;28;20021;-75
2023/05/24 00:33:23;;;;;;;2.67;2.47;;;13.70;97.60;;;;;;5033155;28;20045;-74
2023/05/24 00:35:55;;;;;;;2.67;2.47;;;13.70;97.50;;;;;;5014852;28;20036;-75
2023/05/24 00:38:21;;;;;;;2.50;2.30;;;13.70;97.50;;;;;;5016792;28;20075;-75
2023/05/24 00:40:47;;;;;;;2.90;2.70;;;13.70;97.70;;;;;;5035550;28;20060;-75
2023/05/24 00:43:13;;;;;;;2.25;2.05;;;13.60;97.60;;;;;;5035724;28;20071;-75
2023/05/24 00:45:39;;;;;;;2.63;2.42;;;13.60;97.80;;;;;;5054055;28;20025;-75
2023/05/24 00:48:05;;;;;;;2.55;2.35;;;13.60;97.90;;;;;;5055401;28;20422;-74
2023/05/24 00:50:31;;;;;;;2.63;2.42;;;13.60;98.00;;;;;;5048997;28;20480;-75
2023/05/24 00:53:03;;;;;;;3.55;2.70;;;13.60;98.00;;;;;;5059231;28;20037;-74
2023/05/24 00:55:29;;;;;;;3.27;2.67;;;13.60;98.00;;;;;;5055899;28;20020;-74
2023/05/24 00:57:56;;;;;;;4.40;3.92;;;13.60;98.10;;;;;;5040113;28;20436;-75
2023/05/24 01:00:22;;;;;;;3.83;3.42;;;13.60;98.10;;;;;;5046310;28;20132;-76
2023/05/24 01:02:49;;;;;;;3.00;2.72;;;13.60;98.10;;;;;;5019561;28;20418;-74
2023/05/24 01:05:16;;;;;;;4.20;3.03;;;13.60;98.20;;;;;;5037181;28;20100;-73
2023/05/24 01:08:03;;;;;;;2.95;2.65;;;13.50;98.30;;;;;;5038590;28;20037;-75
2023/05/24 01:10:41;;;;;;;3.38;3.08;;;13.60;98.50;;;;;;5045196;28;20524;-75
2023/05/24 01:13:29;;;;;;;3.40;3.10;;;13.60;98.30;;;;;;5055965;28;20124;-74
2023/05/24 01:16:10;;;;;;;3.03;2.45;;;13.60;98.30;;;;;;5054329;28;20517;-73
2023/05/24 01:18:43;;;;;;;2.55;2.35;;;13.50;98.50;;;;;;5040099;28;20056;-74
2023/05/24 01:21:11;;;;;;;;;;;13.60;98.60;;;;;;5055701;28;20032;-75
2023/05/24 01:23:51;;;;;;;3.58;2.53;;;13.60;98.50;;;;;;5055261;28;19916;-74
2023/05/24 01:26:22;;;;;;;2.72;2.50;;;13.50;98.60;;;;;;5055033;28;20047;-74
2023/05/24 01:28:48;;;;;;;2.83;2.58;;;13.50;98.70;;;;;;5055372;28;20110;-74
2023/05/24 01:31:15;;;;;;;2.03;1.90;;;13.50;98.80;;;;;;5055388;28;20373;-74
2023/05/24 01:33:42;;;;;;;2.13;1.95;;;13.50;98.90;;;;;;5055379;28;20017;-74
2023/05/24 01:36:07;;;;;;;2.75;2.50;;;13.60;98.90;;;;;;5055435;28;20048;-74
2023/05/24 01:38:33;;;;;;;2.70;2.33;;;13.50;98.80;;;;;;5055537;28;20502;-74
2023/05/24 01:41:10;;;;;;;2.35;2.15;;;13.50;98.80;;;;;;5055077;28;20082;-74
2023/05/24 01:43:40;;;;;;;2.65;2.20;;;13.50;98.80;;;;;;5051497;28;20040;-74
2023/05/24 01:46:24;;;;;;;2.60;2.38;;;13.50;98.90;;;;;;5034512;28;20060;-74
2023/05/24 01:49:05;;;;;;;3.28;2.88;;;13.50;98.90;;;;;;5041323;28;20024;-74
2023/05/24 01:51:43;;;;;;;3.38;2.65;;;13.50;98.90;;;;;;5054394;28;20139;-74
2023/05/24 01:54:11;;;;;;;2.17;1.98;;;13.40;98.90;;;;;;5053541;28;20099;-74
2023/05/24 01:56:38;;;;;;;2.40;2.20;;;13.50;99.10;;;;;;5036649;28;20029;-74
2023/05/24 01:59:05;;;;;;;2.60;2.40;;;13.50;99.00;;;;;;5054647;28;20052;-74
2023/05/24 02:01:32;;;;;;;4.82;4.15;;;13.50;99.00;;;;;;5055033;28;20081;-74
2023/05/24 02:03:58;;;;;;;4.03;3.63;;;13.50;98.50;;;;;;5051957;28;20025;-75
2023/05/24 02:06:24;;;;;;;5.13;3.80;;;13.50;98.70;;;;;;5053301;28;20033;-75
2023/05/24 02:08:51;;;;;;;3.50;3.20;;;13.40;98.70;;;;;;5054209;28;20086;-74
2023/05/24 02:11:16;;;;;;;3.17;2.88;;;13.40;98.90;;;;;;5055070;28;20488;-74
2023/05/24 02:13:42;;;;;;;3.90;3.53;;;13.40;99.00;;;;;;5046618;28;20029;-75
2023/05/24 02:16:09;;;;;;;4.05;3.03;;;13.40;99.10;;;;;;5034246;28;20237;-74
2023/05/24 02:18:35;;;;;;;6.90;4.68;;;13.40;99.10;;;;;;5039348;28;20021;-74
2023/05/24 02:21:01;;;;;;;4.32;3.92;;;13.40;98.90;;;;;;5053997;28;20079;-74
2023/05/24 02:23:27;;;;;;;3.60;3.30;;;13.40;99.00;;;;;;5053439;28;20047;-74
2023/05/24 02:25:54;;;;;;;4.18;3.75;;;13.40;99.20;;;;;;5035678;28;20108;-74
2023/05/24 02:28:19;;;;;;;3.33;3.03;;;13.40;99.20;;;;;;5054342;28;20028;-74
2023/05/24 02:30:45;;;;;;;4.55;4.07;;;13.40;99.20;;;;;;5053838;28;20017;-74
2023/05/24 02:33:11;;;;;;;4.20;3.80;;;13.40;99.20;;;;;;5053825;28;20411;-75
2023/05/24 02:35:37;;;;;;;5.53;3.40;;;13.40;99.40;;;;;;5052505;28;20084;-74
2023/05/24 02:38:05;;;;;;;3.47;3.17;;;13.40;99.30;;;;;;5054277;28;20390;-74
2023/05/24 02:40:31;;;;;;;5.22;3.38;;;13.40;99.40;;;;;;5053960;28;20040;-74
2023/05/24 02:42:56;;;;;;;4.57;4.15;;;13.30;99.50;;;;;;5053878;28;20009;-74
2023/05/24 02:45:22;;;;;;;4.40;4.00;;;13.30;99.50;;;;;;5040864;28;20382;-73
2023/05/24 02:47:48;;;;;;;5.32;4.32;;;13.30;99.60;;;;;;5033811;28;20033;-75
2023/05/24 02:50:13;;;;;;;5.05;3.50;;;13.30;99.70;;;;;;5032348;28;20125;-74
2023/05/24 02:52:39;;;;;;;4.13;3.30;;;13.30;99.80;;;;;;5033439;28;20021;-74
2023/05/24 02:55:06;;;;;;;3.72;3.05;;;13.30;99.90;;;;;;5040426;28;20025;-74
2023/05/24 02:57:33;;;;;;;5.30;4.30;;;13.30;99.90;;;;;;5053599;28;20116;-75
2023/05/24 02:59:59;;;;;;;4.15;3.60;;;13.30;99.60;;;;;;5035536;28;20033;-74
2023/05/24 03:02:27;;;;;;;3.40;3.08;;;13.30;99.60;;;;;;5053772;28;20028;-74
2023/05/24 03:04:53;;;;;;;4.05;3.25;;;13.30;99.60;;;;;;5050070;28;20037;-75
2023/05/24 03:07:18;;;;;;;3.58;3.28;;;13.30;99.70;;;;;;5055122;28;20551;-73
2023/05/24 03:09:44;;;;;;;3.58;3.28;;;13.20;99.70;;;;;;5038667;28;20470;-75
2023/05/24 03:12:10;;;;;;;2.65;2.25;;;13.20;99.70;;;;;;5055457;28;20081;-75
2023/05/24 03:14:36;;;;;;;2.75;2.47;;;13.20;99.90;;;;;;5034134;28;20380;-74
2023/05/24 03:17:01;;;;;;;2.42;2.00;;;13.20;99.90;;;;;;5054885;28;20047;-75
2023/05/24 03:19:27;;;;;;;3.70;2.47;;;13.30;99.90;;;;;;5046883;28;20030;-76
2023/05/24 03:21:52;;;;;;;2.50;2.30;;;13.30;99.80;;;;;;5043472;28;20060;-76
2023/05/24 03:24:19;;;;;;;4.80;4.18;;;13.30;99.70;;;;;;5034717;28;20137;-77
2023/05/24 03:26:45;;;;;;;3.63;3.33;;;13.30;99.60;;;;;;5052713;28;20029;-76
2023/05/24 03:29:10;;;;;;;4.95;4.45;;;13.30;99.60;;;;;;5052820;28;20108;-79
2023/05/24 03:31:36;;;;;;;6.35;4.57;;;13.30;99.60;;;;;;5052502;28;20104;-76
2023/05/24 03:34:02;;;;;;;6.20;4.53;;;13.30;99.30;;;;;;5052122;28;20077;-76
2023/05/24 03:36:31;;;;;;;5.88;4.15;;;13.30;99.40;;;;;;5045787;28;20104;-76
2023/05/24 03:38:57;;;;;;;4.65;4.25;;;13.20;99.50;;;;;;5032849;28;20497;-77
2023/05/24 03:41:23;;;;;;;4.40;3.55;;;13.20;99.70;;;;;;5032576;28;20530;-76
2023/05/24 03:43:51;;;;;;;4.20;3.83;;;13.10;99.80;;;;;;5033840;28;20021;-76
2023/05/24 03:46:16;;;;;;;7.10;4.72;;;13.10;99.80;;;;;;5036961;28;20382;-76
2023/05/24 03:48:42;;;;;;;6.00;4.85;;;13.00;99.80;;;;;;5054185;28;20021;-75
2023/05/24 03:51:08;;;;;;;4.68;4.18;;;13.00;99.70;;;;;;5053672;28;20508;-75
2023/05/24 03:53:34;;;;;;;4.75;4.35;;;13.00;99.80;;;;;;5058600;28;20112;-78
2023/05/24 03:55:59;;;;;;;4.97;4.47;;;13.00;99.90;;;;;;5056944;28;20025;-78
2023/05/24 03:58:25;;;;;;;6.20;4.28;;;13.00;99.90;;;;;;5022599;28;20108;-78
2023/05/24 04:00:51;;;;;;;4.57;3.97;;;12.90;99.90;;;;;;5037746;28;20041;-77
2023/05/24 04:03:18;;;;;;;6.13;4.40;;;12.90;99.90;;;;;;5056041;28;20032;-78
2023/05/24 04:05:44;;;;;;;7.13;4.97;;;12.90;99.80;;;;;;5056182;28;20037;-76
2023/05/24 04:08:11;;;;;;;3.88;3.47;;;12.80;99.70;;;;;;5044052;28;20058;-77
2023/05/24 04:10:37;;;;;;;5.25;4.07;;;12.80;99.80;;;;;;5018101;28;20022;-77
2023/05/24 04:13:02;;;;;;;3.55;3.17;;;12.80;99.80;;;;;;5017850;28;20105;-78
2023/05/24 04:15:28;;;;;;;5.38;3.85;;;12.80;99.90;;;;;;5036255;28;20474;-79
2023/05/24 04:17:54;;;;;;;4.72;4.30;;;12.90;99.90;;;;;;5044999;28;20021;-77
2023/05/24 04:20:24;;;;;;;4.38;3.97;;;12.90;99.80;;;;;;5056193;28;20164;-79
2023/05/24 04:22:50;;;;;;;6.60;4.35;;;12.90;99.90;;;;;;5056601;28;20108;-78
2023/05/24 04:25:16;;;;;;;4.78;4.07;;;12.90;99.90;;;;;;5038441;28;20397;-79
2023/05/24 04:27:43;;;;;;;7.32;4.68;;;12.80;99.90;;;;;;5057017;28;20025;-78
2023/05/24 04:30:09;;;;;;;4.93;4.28;;;12.90;99.90;;;;;;5058834;28;20335;-78
2023/05/24 04:32:35;;;;;;;5.68;5.15;;;12.80;99.90;;;;;;5054544;28;20382;-78
2023/05/24 04:35:01;;;;;;;4.53;4.13;;;12.90;99.90;;;;;;5062409;28;20025;-78
2023/05/24 04:37:28;;;;;;;5.00;4.53;;;12.90;99.90;;;;;;5034438;28;20046;-78
2023/05/24 04:39:54;;;;;;;4.70;4.28;;;13.00;99.90;;;;;;5064187;28;20032;-79
2023/05/24 04:42:20;;;;;;;5.45;4.38;;;13.00;99.90;;;;;;5047379;28;20119;-79
2023/05/24 04:44:46;;;;;;;5.80;4.68;;;13.10;99.90;;;;;;5063049;28;20076;-78
2023/05/24 04:47:12;;;;;;;5.18;4.43;;;13.10;99.80;;;;;;5045576;28;20028;-78
2023/05/24 04:49:38;;;;;;;6.05;4.72;;;13.10;99.90;;;;;;5064329;28;20064;-77
2023/05/24 04:52:05;;;;;;;4.75;3.92;;;13.10;99.80;;;;;;5066408;28;20088;-78
2023/05/24 04:54:30;;;;;;;3.40;3.10;;;13.00;99.80;;;;;;5066041;28;20095;-77
2023/05/24 04:56:56;;;;;;;4.93;3.55;;;13.00;99.90;;;;;;5065742;28;20028;-77
2023/05/24 04:59:22;;;;;;;4.72;4.07;;;13.00;99.80;;;;;;5039984;28;20029;-76
2023/05/24 05:01:47;;;;;;;4.93;4.28;;;13.10;99.80;;;;;;5053367;28;20025;-77
2023/05/24 05:04:13;;;;;;;4.57;4.15;;;13.10;99.50;;;;;;5052209;28;20029;-77
2023/05/24 05:06:39;;;;;;;4.38;3.60;;;13.20;99.20;;;;;;5057436;28;20040;-77
2023/05/24 05:09:09;;;;;;;4.30;3.90;;;13.20;98.70;;;;;;5058505;28;20025;-77
2023/05/24 05:11:35;;;;;;;3.83;3.42;;;13.10;98.40;;;;;;5049496;28;20417;-77
2023/05/24 05:14:01;;;;;;;4.30;2.80;;;13.10;98.50;;;;;;5057213;28;20397;-77
2023/05/24 05:16:27;;;;;;;5.57;4.45;;;13.20;98.30;;;;;;5059539;28;20025;-77
2023/05/24 05:18:52;;;;;;;5.28;3.88;;;13.30;97.80;;;;;;5060315;28;20021;-77
2023/05/24 05:21:18;;;;;;;4.75;3.90;;;13.30;97.50;;;;;;5056195;28;20094;-77
2023/05/24 05:23:44;;;;;;;4.63;3.67;;;13.30;97.50;;;;;;5056465;28;20081;-77
2023/05/24 05:26:10;;;;;;;5.50;3.53;;;13.30;97.40;;;;;;5055708;28;20033;-75
2023/05/24 05:28:36;;;;;;;3.97;3.58;;;13.30;97.10;;;;;;5057340;28;20027;-74
2023/05/24 05:31:02;;;;;;;3.60;3.10;;;13.30;97.10;;;;;;5038734;28;20098;-74
2023/05/24 05:33:31;;;;;;;2.95;2.67;;;13.30;96.80;;;;;;5058672;28;20094;-75
2023/05/24 05:35:56;;;;;;;5.55;3.92;;;13.30;96.80;;;;;;5058364;28;20331;-74
2023/05/24 05:38:22;;;;;;;3.92;3.33;;;13.20;96.50;;;;;;5041220;28;20074;-75
2023/05/24 05:40:48;;;;;;;3.47;3.10;;;13.10;96.50;;;;;;5041515;28;20394;-75
2023/05/24 05:43:14;;;;;;;3.70;3.00;;;13.20;96.70;;;;;;5041100;28;20028;-75
2023/05/24 05:45:39;;;;;;;5.07;3.35;;;13.30;96.70;;;;;;5058449;28;20106;-74
2023/05/24 05:48:05;;;;;;;4.65;3.03;;;13.30;96.50;;;;;;5039541;28;20477;-75
2023/05/24 05:50:31;;;;;;;3.30;2.92;;;13.30;96.50;;;;;;5057659;28;20078;-75
2023/05/24 05:52:57;;;;;;;3.55;3.22;;;13.30;96.40;;;;;;5040037;28;20029;-75
2023/05/24 05:55:23;;;;;;;4.65;4.15;;;13.40;96.50;;;;;;5028708;28;20025;-74
2023/05/24 05:57:49;;;;;;;4.97;3.95;;;13.50;96.10;;;;;;5037431;28;20029;-74
2023/05/24 06:00:17;;;;;;;7.25;4.35;;;13.60;95.70;;;;;;5037951;28;20454;-74
2023/05/24 06:02:43;;;;;;;5.28;4.40;;;13.70;95.70;;;;;;5036896;28;20036;-74
2023/05/24 06:05:09;;;;;;;6.53;4.57;;;13.90;95.40;;;;;;5052924;28;20029;-76
2023/05/24 06:07:36;;;;;;;3.47;3.17;;;14.00;95.30;;;;;;5052660;28;20107;-75
2023/05/24 06:10:02;;;;;;;3.83;3.30;;;14.70;94.80;;;;;;5058522;28;20029;-73
2023/05/24 06:12:27;;;;;;;4.30;3.90;;;15.10;93.40;;;;;;5058772;28;20084;-74
2023/05/24 06:14:56;;;;;;;3.70;2.97;;;15.20;92.80;;;;;;5059083;28;20102;-74
2023/05/24 06:17:24;;;;;;;4.55;3.78;;;15.80;92.50;;;;;;5062894;28;20048;-74
2023/05/24 06:19:52;;;;;;;4.70;3.92;;;;;;;;;;5071377;28;20040;-73
2023/05/24 06:22:18;;;;;;;4.32;3.45;;;17.80;90.20;;;;;;5058211;28;20071;-76
2023/05/24 06:24:45;;;;;;;5.13;4.10;;;18.60;83.30;;;;;;5041505;28;20021;-74
2023/05/24 06:27:11;;;;;;;6.07;5.35;;;;;;;;;;5058944;28;20080;-75
2023/05/24 06:29:37;;;;;;;4.40;4.00;;;17.40;81.90;;;;;;5058002;28;20063;-74
2023/05/24 06:32:03;;;;;;;5.22;4.53;;;16.90;84.80;;;;;;5055704;28;20385;-75
2023/05/24 06:34:28;;;;;;;4.15;3.85;;;16.50;86.30;;;;;;5060161;28;20099;-73
2023/05/24 06:36:54;;;;;;;4.50;4.18;;;16.10;87.70;;;;;;5059173;28;20366;-74
2023/05/24 06:39:20;;;;;;;6.50;4.80;;;16.10;89.10;;;;;;5063992;28;20452;-74
2023/05/24 06:41:46;;;;;;;4.32;3.72;;;15.90;88.60;;;;;;5048428;28;20390;-74
2023/05/24 06:44:12;;;;;;;3.50;3.20;;;16.00;89.50;;;;;;5062320;23;20056;-75
2023/05/24 06:46:38;;;;;;;3.35;3.05;;;16.10;89.00;;;;;;5069589;28;20017;-75
2023/05/24 06:49:04;;;;;;;2.67;2.47;;;16.20;87.90;;;;;;5042649;28;20025;-74
2023/05/24 06:51:32;;;;;;;2.92;2.63;;;16.30;88.10;;;;;;5033645;28;20040;-75
2023/05/24 06:53:57;;;;;;;3.65;2.95;;;16.50;86.90;;;;;;5039243;28;20422;-74
2023/05/24 06:56:24;;;;;;;3.55;3.25;;;16.40;86.50;;;;;;5041653;28;20033;-75
2023/05/24 06:58:49;;;;;;;3.47;2.45;;;16.50;86.30;;;;;;5035045;28;20076;-76
2023/05/24 07:01:15;;;;;;;2.45;2.28;;;16.50;86.10;;;;;;5039690;28;20063;-76
2023/05/24 07:03:41;;;;;;;2.03;1.88;;;16.70;85.60;;;;;;5047443;28;20500;-75
2023/05/24 07:06:08;;;;;;;2.70;2.47;;;16.70;84.30;;;;;;5055066;28;20032;-75
2023/05/24 07:08:35;;;;;;;2.55;2.22;;;16.80;84.10;;;;;;5055591;28;20025;-77
2023/05/24 07:11:01;;;;;;;2.30;2.10;;;16.70;83.20;;;;;;5055266;28;20118;-75
2023/05/24 07:13:26;;;;;;;2.22;2.03;;;16.70;83.30;;;;;;5052808;28;20029;-75
2023/05/24 07:15:52;;;;;;;2.63;2.28;;;16.80;83.10;;;;;;5054656;28;20021;-76
2023/05/24 07:18:17;;;;;;;2.63;2.40;;;16.80;83.40;;;;;;5053240;28;20072;-76
2023/05/24 07:20:43;;;;;;;1.92;1.83;;;16.80;83.20;;;;;;5034580;28;20124;-77
2023/05/24 07:23:09;;;;;;;3.35;2.70;;;16.70;83.20;;;;;;5053370;28;20084;-76
2023/05/24 07:25:35;;;;;;;4.10;2.30;;;16.70;83.00;;;;;;5051954;28;20523;-77
2023/05/24 07:28:00;;;;;;;3.42;2.97;;;16.80;83.80;;;;;;5052716;28;20033;-76
2023/05/24 07:30:26;;;;;;;3.85;2.72;;;16.90;83.20;;;;;;5040348;28;20033;-76
2023/05/24 07:32:52;;;;;;;2.60;2.28;;;17.00;83.20;;;;;;5049650;28;20422;-77
2023/05/24 07:35:17;;;;;;;2.75;2.50;;;17.10;82.60;;;;;;5034404;28;20089;-77
2023/05/24 07:37:43;;;;;;;4.43;4.00;;;17.20;82.10;;;;;;5038628;28;20052;-76
2023/05/24 07:40:11;;;;;;;5.25;3.90;;;17.30;79.50;;;;;;5051265;28;20201;-77
2023/05/24 07:42:41;;;;;;;4.10;2.72;;;17.30;79.70;;;;;;5066184;28;20025;-75
2023/05/24 07:45:07;;;;;;;4.20;2.75;;;17.30;80.20;;;;;;5071405;28;20055;-75
2023/05/24 07:47:33;;;;;;;2.38;2.17;;;17.20;79.80;;;;;;5063390;28;20493;-74
2023/05/24 07:49:59;;;;;;;3.90;2.50;;;17.20;79.70;;;;;;5044083;28;20083;-75
2023/05/24 07:52:25;;;;;;;4.25;2.97;;;17.30;79.50;;;;;;5014792;28;20391;-76
2023/05/24 07:54:54;;;;;;;2.35;2.13;;;17.10;79.50;;;;;;5014557;28;20025;-75
2023/05/24 07:57:19;;;;;;;5.07;4.07;;;17.00;80.60;;;;;;5014394;28;20566;-75
2023/05/24 07:59:45;;;;;;;4.63;3.40;;;16.80;80.30;;;;;;5035816;28;20029;-76
2023/05/24 08:02:12;;;;;;;3.50;3.20;;;16.60;81.30;;;;;;5049738;28;20017;-76
2023/05/24 08:04:39;;;;;;;4.00;3.30;;;16.70;82.40;;;;;;5035273;28;20029;-76
2023/05/24 08:07:05;;;;;;;4.25;3.28;;;16.90;81.30;;;;;;5031601;28;20487;-75
2023/05/24 08:09:35;;;;;;;3.30;2.53;;;16.90;80.90;;;;;;5032478;28;20051;-77
2023/05/24 08:12:05;;;;;;;4.25;3.10;;;16.90;80.30;;;;;;5053884;28;20385;-75
2023/05/24 08:14:31;;;;;;;4.93;3.35;;;16.90;80.20;;;;;;5066467;28;20079;-76
2023/05/24 08:16:56;;;;;;;3.42;2.95;;;16.70;80.50;;;;;;5056962;28;20044;-76
2023/05/24 08:19:22;;;;;;;3.67;2.60;;;16.70;81.20;;;;;;5052093;28;20025;-76
2023/05/24 08:21:48;;;;;;;4.68;3.90;;;16.60;82.00;;;;;;5036640;28;20030;-77
2023/05/24 08:24:14;;;;;;;3.40;2.90;;;16.80;81.60;;;;;;5031031;28;20587;-75
2023/05/24 08:26:42;;;;;;;2.92;2.67;;;17.00;81.00;;;;;;5032032;28;20052;-76
2023/05/24 08:29:08;;;;;;;4.55;3.83;;;17.20;81.00;;;;;;5033248;28;20092;-77
2023/05/24 08:31:33;;;;;;;4.57;3.72;;;17.10;79.20;;;;;;5041063;28;20119;-76
2023/05/24 08:34:00;;;;;;;3.90;3.08;;;16.90;79.20;;;;;;5029933;28;20025;-76
2023/05/24 08:36:25;;;;;;;3.42;2.60;;;16.90;79.90;;;;;;5054025;28;20023;-76
2023/05/24 08:38:51;;;;;;;7.30;5.13;;;16.90;80.40;;;;;;5036071;28;20107;-76
2023/05/24 08:41:17;;;;;;;8.02;5.88;;;17.00;78.50;;;;;;5030082;28;20026;-76
2023/05/24 08:43:43;;;;;;;4.85;4.25;;;17.00;77.80;;;;;;5033737;28;20387;-76
2023/05/24 08:46:10;;;;;;;5.25;4.03;;;16.90;79.40;;;;;;5032991;28;20089;-76
2023/05/24 08:48:44;;;;;;;5.07;4.68;;;16.80;79.50;;;;;;5013534;28;20046;-77
2023/05/24 08:51:10;;;;;;;6.97;4.80;;;16.70;79.40;;;;;;5034732;28;20377;-76
2023/05/24 08:53:37;;;;;;;7.95;5.50;;;16.70;79.70;;;;;;5044059;28;20029;-76
2023/05/24 08:56:05;;;;;;;4.88;4.00;;;16.70;79.40;;;;;;5031439;28;20022;-77
2023/05/24 08:58:31;;;;;;;8.00;4.80;;;16.60;80.00;;;;;;5032200;28;20028;-76
2023/05/24 09:00:58;;;;;;;7.22;5.07;;;16.30;80.40;;;;;;5038400;28;20037;-76
2023/05/24 09:03:25;;;;;;;6.22;4.50;;;16.10;80.90;;;;;;5056180;28;20029;-76
2023/05/24 09:05:52;;;;;;;7.55;5.40;;;16.00;82.20;;;;;;5055260;28;20031;-77
2023/05/24 09:08:19;;;;;;;6.82;4.93;;;15.90;81.60;;;;;;5049277;28;20028;-77
2023/05/24 09:10:46;;;;;;;9.60;5.88;;;15.70;82.50;;;;;;5065862;28;20040;-77
2023/05/24 09:13:14;;;;;;;6.35;4.38;;;15.70;83.10;;;;;;5038288;28;20086;-77
2023/05/24 09:15:40;;;;;;;7.75;4.47;;;15.90;83.90;;;;;;5031644;28;20030;-76
2023/05/24 09:18:05;;;;;;;4.05;3.63;;;16.10;81.80;;;;;;5052579;28;20040;-77
2023/05/24 09:20:31;;;;;;;3.42;3.05;;;16.20;81.70;;;;;;5058533;28;20033;-77
2023/05/24 09:23:00;;;;;;;6.28;4.65;;;16.30;81.80;;;;;;5054525;28;20025;-76
2023/05/24 09:25:27;;;;;;;6.78;4.70;;;16.60;80.40;;;;;;5053778;28;20097;-76
2023/05/24 09:27:53;;;;;;;4.53;4.03;;;16.80;78.20;;;;;;5036200;28;20059;-77
2023/05/24 09:30:20;;;;;;;6.35;4.30;;;17.00;77.80;;;;;;5035842;28;20061;-77
2023/05/24 09:32:59;;;;;;;5.32;3.53;;;17.10;77.10;;;;;;5052283;28;20021;-76
2023/05/24 09:35:27;;;;;;;3.20;2.90;;;17.10;77.30;;;;;;5048823;28;20067;-76
2023/05/24 09:38:00;;;;;;;6.95;4.55;;;17.10;77.10;;;;;;5036261;28;20366;-77
2023/05/24 09:40:27;;;;;;;6.85;4.47;;;16.90;76.10;;;;;;5053017;28;20096;-76
2023/05/24 09:43:03;;;;;;;5.18;3.97;;;16.60;76.10;;;;;;5054579;28;20064;-76
2023/05/24 09:45:28;;;;;;;5.53;3.90;;;16.30;77.30;;;;;;5053630;28;20139;-77
2023/05/24 09:47:54;;;;;;;3.65;3.00;;;16.20;78.50;;;;;;5053580;28;20044;-76
2023/05/24 09:50:19;;;;;;;3.22;2.65;;;16.30;79.20;;;;;;5028906;28;20111;-77
2023/05/24 09:52:46;;;;;;;4.53;3.28;;;16.40;79.10;;;;;;5033460;28;20079;-77
2023/05/24 09:55:19;;;;;;;6.90;4.55;;;16.60;78.30;;;;;;5034101;28;20443;-76
2023/05/24 09:58:01;;;;;;;7.75;4.65;;;16.70;77.20;;;;;;5032930;28;20037;-77
2023/05/24 10:00:27;;;;;;;4.03;3.63;;;16.50;76.80;;;;;;5033714;28;20032;-76
2023/05/24 10:03:23;;;;;;;8.60;5.75;;;16.30;78.20;;;;;;5050042;28;20022;-80
2023/05/24 10:05:52;;;;;;;10.07;5.35;;;16.20;77.50;;;;;;5050943;28;20045;-76
2023/05/24 10:08:19;;;;;;;7.43;4.53;;;16.10;77.80;;;;;;5035907;28;20112;-75
2023/05/24 10:10:45;;;;;;;9.35;5.50;;;15.90;78.90;;;;;;5053861;28;20078;-76
2023/05/24 10:13:14;;;;;;;9.27;5.30;;;15.90;79.60;;;;;;5056632;28;20442;-77
2023/05/24 10:15:41;;;;;;;5.15;4.65;;;15.60;82.50;;;;;;5059453;28;20017;-77
2023/05/24 10:18:07;;;;;;;13.82;6.28;;;15.40;84.40;;;;;;5038108;28;20068;-77
2023/05/24 10:20:34;;;;;;;5.97;5.07;;;15.20;86.10;;;;;;5032944;28;20021;-75
2023/05/24 10:23:05;;;;;;;9.15;6.35;;;14.80;88.40;;;;;;5024111;28;20025;-75
2023/05/24 10:25:33;;;;;;;7.95;4.68;;;14.80;89.30;;;;;;5045792;28;20037;-76
2023/05/24 10:28:07;;;;;;;6.45;5.10;;;14.80;90.20;;;;;;5041807;28;20088;-76
2023/05/24 10:30:36;;;;;;;10.05;5.32;;;14.70;90.70;;;;;;5027461;28;20086;-74
2023/05/24 10:33:05;;;;;;;9.73;6.40;;;14.60;90.90;;;;;;5042587;28;20085;-78
2023/05/24 10:35:32;;;;;;;11.85;5.38;;;14.50;91.10;;;;;;5049867;28;20099;-76
2023/05/24 10:37:58;;;;;;;8.10;4.15;;;14.60;91.00;;;;;;5055665;28;20017;-74
2023/05/24 10:40:25;;;;;;;5.45;4.32;;;14.70;91.50;;;;;;5056107;28;20059;-75
2023/05/24 10:42:53;;;;;;;7.93;4.93;;;15.00;91.20;;;;;;5054728;28;20025;-75
2023/05/24 10:45:25;;;;;;;6.95;4.40;;;15.20;90.40;;;;;;5044914;28;20109;-76
2023/05/24 10:47:51;;;;;;;;;;;15.40;90.10;;;;;;5016274;28;20048;-76
2023/05/24 10:50:20;;;;;;;5.63;3.80;;;15.40;89.10;;;;;;5034053;28;19909;-76
2023/05/24 10:52:48;;;;;;;6.00;4.72;;;15.60;88.90;;;;;;5033868;28;20036;-76
2023/05/24 10:55:14;;;;;;;9.82;4.45;;;15.70;86.90;;;;;;5019446;28;20021;-75
2023/05/24 10:57:40;;;;;;;6.38;4.30;;;15.60;84.80;;;;;;5053143;28;20017;-74
2023/05/24 11:00:24;;;;;;;5.57;3.47;;;15.50;85.00;;;;;;5035265;28;20028;-76
2023/05/24 11:03:09;;;;;;;3.50;3.20;;;15.40;84.70;;;;;;5050884;28;20051;-75
2023/05/24 11:05:48;;;;;;;10.63;5.78;;;15.30;84.60;;;;;;5039568;28;20025;-75
2023/05/24 11:08:19;;;;;;;6.18;4.18;;;15.30;83.20;;;;;;5053107;28;20017;-76
2023/05/24 11:10:46;;;;;;;4.00;3.53;;;15.30;82.80;;;;;;5053148;28;20025;-76
2023/05/24 11:13:12;;;;;;;5.22;3.65;;;15.30;83.10;;;;;;5052572;28;20310;-77
2023/05/24 11:15:38;;;;;;;7.40;4.40;;;15.40;83.20;;;;;;5032223;28;20025;-77
2023/05/24 11:18:13;;;;;;;5.68;3.22;;;15.30;83.20;;;;;;5033517;28;20021;-78
2023/05/24 11:20:44;;;;;;;5.90;4.65;;;15.30;83.40;;;;;;5034391;28;20565;-76
2023/05/24 11:23:10;;;;;;;7.18;4.47;;;15.40;83.30;;;;;;5033514;28;20066;-76
2023/05/24 11:25:39;;;;;;;10.00;4.57;;;15.40;83.00;;;;;;5016504;28;20411;-77
2023/05/24 11:28:11;;;;;;;6.78;3.65;;;15.40;82.20;;;;;;5054256;28;20495;-76
2023/05/24 11:30:45;;;;;;;9.75;4.22;;;15.50;82.50;;;;;;5052865;28;20398;-76
2023/05/24 11:33:24;;;;;;;7.63;4.15;;;15.70;81.70;;;;;;5047997;28;20128;-76
2023/05/24 11:35:51;;;;;;;5.90;3.97;;;16.00;79.90;;;;;;5051606;28;20604;-77
2023/05/24 11:38:17;;;;;;;5.40;4.05;;;16.20;79.50;;;;;;5037640;28;20052;-76
2023/05/24 11:40:47;;;;;;;3.88;3.38;;;16.40;77.80;;;;;;5033491;28;20776;-76
2023/05/24 11:43:18;;;;;;;5.63;3.38;;;16.60;77.30;;;;;;5042849;28;20075;-76
2023/05/24 11:45:47;;;;;;;4.82;3.60;;;16.90;76.60;;;;;;5015655;28;20398;-77
2023/05/24 11:48:13;;;;;;;5.72;3.30;;;17.10;76.00;;;;;;5034754;28;20048;-78
2023/05/24 11:50:40;;;;;;;4.45;3.08;;;17.30;74.70;;;;;;5035393;28;20036;-77
2023/05/24 11:53:13;;;;;;;6.55;3.42;;;17.30;74.00;;;;;;5054676;28;20033;-78
2023/05/24 11:55:40;;;;;;;10.27;4.25;;;17.30;73.90;;;;;;5036678;28;20552;-78
2023/05/24 11:58:28;;;;;;;8.25;3.97;;;17.30;72.80;;;;;;5054255;28;20017;-77
2023/05/24 12:00:54;;;;;;;6.65;4.63;;;17.20;72.00;;;;;;5036234;28;20040;-77
2023/05/24 12:03:20;;;;;;;6.38;4.25;;;17.10;72.40;;;;;;5048122;28;20033;-78
2023/05/24 12:05:46;;;;;;;9.80;3.75;;;17.20;72.40;;;;;;5051950;28;20514;-77
2023/05/24 12:08:14;;;;;;;6.88;3.45;;;17.30;71.70;;;;;;5055064;28;20370;-77
2023/05/24 12:10:41;;;;;;;6.32;3.85;;;17.40;71.80;;;;;;5054511;28;20466;-77
2023/05/24 12:13:23;;;;;;;5.32;3.95;;;17.40;70.10;;;;;;5053984;28;20479;-77
2023/05/24 12:15:56;;;;;;;6.70;3.85;;;17.40;71.30;;;;;;5053394;28;20431;-77
2023/05/24 12:18:24;;;;;;;6.40;3.15;;;17.40;70.70;;;;;;5060422;28;20018;-76
2023/05/24 12:20:50;;;;;;;6.78;4.00;;;17.30;71.10;;;;;;5045166;28;20036;-78
2023/05/24 12:23:20;;;;;;;6.43;3.30;;;17.20;70.40;;;;;;5056678;28;20094;-77
2023/05/24 12:25:46;;;;;;;7.65;4.05;;;17.00;71.10;;;;;;5051875;28;20048;-77
2023/05/24 12:28:12;;;;;;;5.22;3.72;;;16.90;70.70;;;;;;5034579;28;20037;-76
2023/05/24 12:30:43;;;;;;;5.57;3.90;;;16.70;70.80;;;;;;5035643;28;20535;-77
2023/05/24 12:33:10;;;;;;;5.57;3.10;;;16.60;70.50;;;;;;5044018;28;20384;-78
2023/05/24 12:35:46;;;;;;;12.88;4.05;;;16.50;69.80;;;;;;5040777;28;20071;-77
2023/05/24 12:38:11;;;;;;;10.88;4.88;;;16.40;69.80;;;;;;5060397;28;20021;-77
2023/05/24 12:40:42;;;;;;;6.30;3.40;;;16.40;70.30;;;;;;5072329;28;20025;-77
2023/05/24 12:43:09;;;;;;;4.65;2.72;;;16.30;70.00;;;;;;5069903;28;20108;-78
2023/05/24 12:45:36;;;;;;;8.80;3.25;;;16.30;70.50;;;;;;5073792;28;20045;-76
2023/05/24 12:48:03;;;;;;;8.85;3.78;;;16.50;69.60;;;;;;5069181;28;20120;-77
2023/05/24 12:50:30;;;;;;;4.45;2.83;;;16.50;69.40;;;;;;5056766;28;20025;-76